Time;durP1;ratioP1;P1;durP2;ratioP2;P2;SDS_P1;SDS_P2;PMS_P1;PMS_P2;Temp;Humidity;BMP_temperature;BMP_pressure;BME280_temperature;BME280_humidity;BME280_pressure;Samples;Min_cycle;Max_cycle;Signal;HPM_P1;HPM_P2
2022/07/07 00:03:21;;;;;;;6.32;4.38;;;;;;;;;;10333846;28;20049;-79
2022/07/07 00:08:21;;;;;;;3.03;2.73;;;;;;;;;;10355908;28;20074;-79
2022/07/07 00:13:22;;;;;;;3.15;2.65;;;;;;;;;;10346676;28;20289;-78
2022/07/07 00:18:22;;;;;;;5.80;2.72;;;;;;;;;;10358865;28;20952;-77
2022/07/07 00:23:23;;;;;;;3.07;1.93;;;;;;;;;;10334190;28;20182;-77
2022/07/07 00:28:23;;;;;;;3.53;2.40;;;;;;;;;;10353241;28;20050;-77
2022/07/07 00:33:23;;;;;;;2.38;2.17;;;;;;;;;;10340267;28;20057;-78
2022/07/07 00:38:24;;;;;;;3.05;2.58;;;;;;;;;;10342259;28;20132;-77
2022/07/07 00:43:24;;;;;;;2.33;2.13;;;;;;;;;;10347542;28;20058;-77
2022/07/07 00:48:25;;;;;;;3.95;2.50;;;;;;;;;;10319923;28;20042;-77
2022/07/07 00:53:25;;;;;;;2.30;2.00;;;;;;;;;;10328341;28;20068;-77
2022/07/07 00:58:26;;;;;;;2.28;2.05;;;;;;;;;;10340237;28;20315;-77
2022/07/07 01:03:27;;;;;;;2.50;2.30;;;;;;;;;;10333826;28;20053;-78
2022/07/07 01:08:28;;;;;;;2.00;1.90;;;;;;;;;;10337846;28;20897;-78
2022/07/07 01:13:28;;;;;;;3.78;2.20;;;;;;;;;;10344477;28;20153;-78
2022/07/07 01:18:29;;;;;;;2.50;2.30;;;;;;;;;;10344732;28;20109;-80
2022/07/07 01:23:29;;;;;;;2.80;2.50;;;;;;;;;;10340065;28;20070;-78
2022/07/07 01:28:30;;;;;;;2.63;2.38;;;;;;;;;;10330740;28;20042;-77
2022/07/07 01:33:30;;;;;;;5.00;2.17;;;;;;;;;;10324216;28;20046;-77
2022/07/07 01:38:32;;;;;;;3.57;2.50;;;;;;;;;;10351003;28;20125;-77
2022/07/07 01:43:33;;;;;;;2.53;2.28;;;;;;;;;;10330237;28;20293;-77
2022/07/07 01:48:33;;;;;;;2.55;2.30;;;;;;;;;;10321902;28;20536;-78
2022/07/07 01:53:35;;;;;;;3.47;2.65;;;;;;;;;;10350424;28;20062;-80
2022/07/07 01:58:36;;;;;;;5.00;3.00;;;;;;;;;;10363208;28;20049;-80
2022/07/07 02:03:38;;;;;;;3.00;2.63;;;;;;;;;;10343202;28;20058;-77
2022/07/07 02:08:38;;;;;;;3.73;2.87;;;;;;;;;;10344937;28;20386;-77
2022/07/07 02:13:45;;;;;;;3.20;2.90;;;;;;;;;;10347667;28;20281;-78
2022/07/07 02:18:46;;;;;;;3.13;2.83;;;;;;;;;;10333364;28;20121;-76
2022/07/07 02:23:47;;;;;;;3.75;3.00;;;;;;;;;;10370752;28;20077;-78
2022/07/07 02:28:48;;;;;;;5.50;3.40;;;;;;;;;;10368363;28;20045;-77
2022/07/07 02:33:49;;;;;;;3.50;3.20;;;;;;;;;;10359326;28;20133;-77
2022/07/07 02:38:50;;;;;;;3.65;3.22;;;;;;;;;;10346691;28;20070;-78
2022/07/07 02:43:52;;;;;;;5.60;3.50;;;;;;;;;;10338957;28;20046;-78
2022/07/07 02:48:55;;;;;;;3.72;3.38;;;;;;;;;;10342226;28;20117;-78
2022/07/07 02:53:56;;;;;;;3.53;3.22;;;;;;;;;;10337613;28;20723;-78
2022/07/07 02:58:57;;;;;;;3.30;3.00;;;;;;;;;;10349951;28;20058;-78
2022/07/07 03:03:58;;;;;;;3.30;2.97;;;;;;;;;;10347507;28;20404;-77
2022/07/07 03:08:58;;;;;;;5.63;3.33;;;;;;;;;;10355523;28;20038;-77
2022/07/07 03:13:59;;;;;;;4.05;3.28;;;;;;;;;;10328076;28;20297;-76
2022/07/07 03:18:59;;;;;;;4.23;3.63;;;;;;;;;;10352016;28;20065;-76
2022/07/07 03:23:59;;;;;;;3.72;3.42;;;;;;;;;;10343472;28;20057;-77
2022/07/07 03:29:00;;;;;;;5.17;3.73;;;;;;;;;;10330410;28;20378;-77
2022/07/07 03:34:00;;;;;;;4.20;3.80;;;;;;;;;;10314009;28;20773;-78
2022/07/07 03:39:00;;;;;;;3.77;3.30;;;;;;;;;;10326838;28;20281;-79
2022/07/07 03:44:02;;;;;;;6.63;4.10;;;;;;;;;;10341406;28;20338;-78
2022/07/07 03:49:02;;;;;;;3.92;3.63;;;;;;;;;;10324183;28;20049;-77
2022/07/07 03:54:03;;;;;;;5.20;3.55;;;;;;;;;;10321030;28;20456;-78
2022/07/07 03:59:04;;;;;;;4.22;3.80;;;;;;;;;;10341691;28;20519;-77
2022/07/07 04:04:07;;;;;;;3.80;3.40;;;;;;;;;;10328706;28;20055;-79
2022/07/07 04:09:07;;;;;;;4.38;3.45;;;;;;;;;;10334591;28;20380;-78
2022/07/07 04:14:08;;;;;;;4.45;4.05;;;;;;;;;;10331996;28;20062;-77
2022/07/07 04:19:08;;;;;;;4.40;4.00;;;;;;;;;;10385414;28;20128;-78
2022/07/07 04:24:08;;;;;;;3.83;3.50;;;;;;;;;;10350642;28;20283;-77
2022/07/07 04:29:09;;;;;;;4.40;4.00;;;;;;;;;;10342617;28;20625;-77
2022/07/07 04:34:09;;;;;;;3.80;3.33;;;;;;;;;;10335964;28;20285;-77
2022/07/07 04:39:10;;;;;;;5.40;3.67;;;;;;;;;;10338294;28;20351;-78
2022/07/07 04:44:10;;;;;;;5.55;4.50;;;;;;;;;;10335325;28;20111;-77
2022/07/07 04:49:10;;;;;;;5.63;4.13;;;;;;;;;;10364302;28;20041;-78
2022/07/07 04:54:12;;;;;;;4.70;4.20;;;;;;;;;;10355453;28;20305;-81
2022/07/07 04:59:13;;;;;;;3.85;3.55;;;;;;;;;;10345124;28;20451;-81
2022/07/07 05:04:17;;;;;;;5.43;4.03;;;;;;;;;;10352418;28;20053;-80
2022/07/07 05:09:17;;;;;;;3.80;3.50;;;;;;;;;;10361129;28;20157;-79
2022/07/07 05:14:19;;;;;;;5.60;3.97;;;;;;;;;;10326929;28;20066;-79
2022/07/07 05:19:19;;;;;;;5.53;4.10;;;;;;;;;;10335144;28;20354;-79
2022/07/07 05:24:21;;;;;;;3.95;3.65;;;;;;;;;;10312860;28;20412;-80
2022/07/07 05:29:22;;;;;;;4.90;3.67;;;;;;;;;;10330615;28;20068;-79
2022/07/07 05:34:23;;;;;;;5.10;3.95;;;;;;;;;;10328341;28;20158;-80
2022/07/07 05:39:25;;;;;;;5.32;3.92;;;;;;;;;;10350361;28;20042;-82
2022/07/07 05:44:25;;;;;;;8.60;5.88;;;;;;;;;;10374593;28;20097;-77
2022/07/07 05:49:26;;;;;;;9.63;3.90;;;;;;;;;;10353448;28;20078;-76
2022/07/07 05:54:26;;;;;;;3.83;3.23;;;;;;;;;;10333605;28;20307;-77
2022/07/07 05:59:26;;;;;;;4.17;3.67;;;;;;;;;;10330708;28;20786;-77
2022/07/07 06:04:29;;;;;;;6.72;3.88;;;;;;;;;;10336051;28;20454;-76
2022/07/07 06:09:29;;;;;;;4.38;3.30;;;;;;;;;;10324805;28;20589;-75
2022/07/07 06:14:30;;;;;;;4.27;3.10;;;;;;;;;;10348420;28;20054;-77
2022/07/07 06:19:30;;;;;;;4.90;3.25;;;;;;;;;;10317562;28;20033;-78
2022/07/07 06:24:31;;;;;;;4.30;3.08;;;;;;;;;;10326167;28;20043;-75
2022/07/07 06:29:31;;;;;;;3.65;3.10;;;;;;;;;;10315412;28;20583;-77
2022/07/07 06:34:32;;;;;;;3.93;3.07;;;;;;;;;;10321901;28;20054;-74
2022/07/07 06:39:32;;;;;;;3.50;3.20;;;;;;;;;;10312107;28;20307;-78
2022/07/07 06:44:32;;;;;;;4.07;3.50;;;;;;;;;;10348269;28;20281;-79
2022/07/07 06:49:33;;;;;;;3.50;3.20;;;;;;;;;;10342673;28;20100;-79
2022/07/07 06:54:33;;;;;;;7.25;4.20;;;;;;;;;;10325505;28;20296;-77
2022/07/07 06:59:34;;;;;;;3.08;2.70;;;;;;;;;;10346363;28;20106;-77
2022/07/07 07:04:34;;;;;;;4.57;3.30;;;;;;;;;;10358724;28;20459;-78
2022/07/07 07:09:35;;;;;;;4.72;3.85;;;;;;;;;;10349825;28;20068;-78
2022/07/07 07:14:35;;;;;;;10.23;6.93;;;;;;;;;;10336106;28;20054;-80
2022/07/07 07:19:36;;;;;;;6.28;4.68;;;;;;;;;;10355014;28;20108;-81
2022/07/07 07:24:36;;;;;;;8.77;6.40;;;;;;;;;;10343634;28;20049;-78
2022/07/07 07:29:36;;;;;;;7.33;6.10;;;;;;;;;;10354316;28;20069;-78
2022/07/07 07:34:37;;;;;;;6.63;6.00;;;;;;;;;;10359142;28;20289;-79
2022/07/07 07:39:37;;;;;;;7.53;6.17;;;;;;;;;;10346426;28;20043;-78
2022/07/07 07:49:56;;;;;;;6.35;5.68;;;;;;;;;;10347879;28;20277;-78
2022/07/07 07:54:57;;;;;;;5.97;5.40;;;;;;;;;;10334853;28;20540;-78
2022/07/07 07:59:57;;;;;;;5.03;4.53;;;;;;;;;;10334714;28;20307;-78
2022/07/07 08:04:58;;;;;;;4.97;4.32;;;;;;;;;;10361068;28;20556;-80
2022/07/07 08:10:01;;;;;;;4.60;4.10;;;;;;;;;;10352089;28;20124;-79
2022/07/07 08:15:02;;;;;;;5.93;5.32;;;;;;;;;;10341565;28;20756;-77
2022/07/07 08:20:04;;;;;;;5.45;5.03;;;;;;;;;;10345237;28;20053;-78
2022/07/07 08:25:04;;;;;;;6.07;5.53;;;;;;;;;;10336695;28;20393;-78
2022/07/07 08:30:05;;;;;;;5.78;5.18;;;;;;;;;;10343922;28;20054;-78
2022/07/07 08:35:06;;;;;;;5.63;4.45;;;;;;;;;;10319210;28;20074;-81
2022/07/07 08:40:06;;;;;;;6.50;5.82;;;;;;;;;;10343261;28;20125;-78
2022/07/07 08:45:07;;;;;;;6.40;5.78;;;;;;;;;;10337206;28;20569;-79
2022/07/07 08:50:08;;;;;;;8.27;6.82;;;;;;;;;;10354147;28;20184;-79
2022/07/07 08:55:11;;;;;;;7.25;6.18;;;;;;;;;;10345482;28;20049;-78
2022/07/07 09:00:14;;;;;;;7.72;5.60;;;;;;;;;;10336913;28;20129;-78
2022/07/07 09:05:14;;;;;;;7.18;5.93;;;;;;;;;;10344820;28;20053;-77
2022/07/07 09:10:31;;;;;;;6.63;5.90;;;;;;;;;;10351206;28;20042;-78
2022/07/07 09:15:37;;;;;;;7.38;5.45;;;;;;;;;;10336465;28;20054;-78
2022/07/07 09:20:39;;;;;;;7.80;5.70;;;;;;;;;;10343437;28;20140;-77
2022/07/07 09:25:39;;;;;;;6.25;5.60;;;;;;;;;;10363917;28;20037;-77
2022/07/07 09:30:41;;;;;;;6.28;5.47;;;;;;;;;;10362075;28;20112;-78
2022/07/07 09:41:03;;;;;;;8.18;6.18;;;;;;;;;;10357194;28;20038;-78
2022/07/07 09:46:12;;;;;;;6.38;5.78;;;;;;;;;;10328419;28;20069;-79
2022/07/07 09:51:22;;;;;;;5.30;4.78;;;;;;;;;;10322991;28;20048;-78
2022/07/07 09:56:24;;;;;;;7.28;6.15;;;;;;;;;;10346976;28;20069;-77
2022/07/07 10:01:26;;;;;;;9.15;6.53;;;;;;;;;;10336996;28;20207;-78
2022/07/07 10:06:29;;;;;;;7.80;5.13;;;;;;;;;;10325670;28;20066;-78
2022/07/07 10:11:35;;;;;;;14.13;8.63;;;;;;;;;;10313845;28;20038;-78
2022/07/07 10:16:37;;;;;;;5.57;4.82;;;;;;;;;;10347147;28;20058;-78
2022/07/07 10:21:40;;;;;;;8.43;4.63;;;;;;;;;;10341853;28;20042;-78
2022/07/07 10:26:43;;;;;;;4.10;3.70;;;;;;;;;;10353227;28;20057;-79
2022/07/07 10:31:51;;;;;;;6.00;3.88;;;;;;;;;;10355581;28;20129;-78
2022/07/07 10:36:51;;;;;;;5.43;4.32;;;;;;;;;;10357946;28;20074;-78
2022/07/07 10:42:07;;;;;;;6.03;4.13;;;;;;;;;;10356541;28;20436;-78
2022/07/07 10:47:07;;;;;;;4.13;3.20;;;;;;;;;;10402645;28;20030;-79
2022/07/07 10:52:12;;;;;;;6.13;3.70;;;;;;;;;;10399548;28;20053;-79
2022/07/07 10:57:16;;;;;;;3.85;3.50;;;;;;;;;;10394726;28;20054;-76
2022/07/07 11:02:16;;;;;;;4.43;3.97;;;;;;;;;;10347459;28;20069;-78
2022/07/07 11:07:18;;;;;;;5.60;3.70;;;;;;;;;;10342996;28;20058;-78
2022/07/07 11:12:39;;;;;;;4.72;3.72;;;;;;;;;;10348177;28;20038;-79
2022/07/07 11:17:39;;;;;;;4.22;3.50;;;;;;;;;;10360699;28;20042;-81
2022/07/07 11:22:43;;;;;;;4.75;4.28;;;;;;;;;;10330033;28;20038;-76
2022/07/07 11:27:43;;;;;;;5.78;4.90;;;;;;;;;;10362707;28;20066;-79
2022/07/07 11:32:43;;;;;;;7.25;4.47;;;;;;;;;;10344345;28;20049;-79
2022/07/07 11:37:45;;;;;;;5.47;4.80;;;;;;;;;;10363688;28;20065;-79
2022/07/07 11:42:45;;;;;;;6.90;5.07;;;;;;;;;;10342481;28;20133;-78
2022/07/07 11:47:50;;;;;;;8.32;5.30;;;;;;;;;;10335015;28;20125;-78
2022/07/07 11:52:52;;;;;;;5.05;3.70;;;;;;;;;;10339868;28;20125;-77
2022/07/07 11:57:57;;;;;;;3.88;3.05;;;;;;;;;;10334969;28;20050;-78
2022/07/07 12:03:00;;;;;;;4.78;3.47;;;;;;;;;;10362574;28;20050;-77
2022/07/07 12:08:01;;;;;;;3.60;3.00;;;;;;;;;;10352318;28;20106;-76
2022/07/07 12:13:02;;;;;;;5.75;3.30;;;;;;;;;;10345468;28;20417;-77
2022/07/07 12:18:03;;;;;;;3.95;3.40;;;;;;;;;;10347462;28;20050;-78
2022/07/07 12:23:08;;;;;;;5.18;3.15;;;;;;;;;;10360836;28;20514;-78
2022/07/07 12:28:11;;;;;;;5.78;3.80;;;;;;;;;;10330617;28;20052;-79
2022/07/07 12:33:12;;;;;;;;;;;;;;;;;;10345936;28;20506;-77
2022/07/07 12:38:13;;;;;;;4.78;4.30;;;;;;;;;;10354606;28;20008;-75
2022/07/07 12:43:14;;;;;;;6.88;4.20;;;;;;;;;;10323327;28;20050;-78
2022/07/07 12:48:17;;;;;;;8.77;7.85;;;;;;;;;;10362765;28;20124;-79
2022/07/07 12:53:18;;;;;;;5.47;4.80;;;;;;;;;;10355938;28;20159;-79
2022/07/07 12:58:18;;;;;;;6.37;5.43;;;;;;;;;;10356504;28;20041;-79
2022/07/07 13:03:19;;;;;;;6.00;5.40;;;;;;;;;;10357075;28;20060;-78
2022/07/07 13:08:19;;;;;;;7.00;6.13;;;;;;;;;;10339902;28;20056;-78
2022/07/07 13:13:19;;;;;;;6.60;4.40;;;;;;;;;;10362877;28;20297;-78
2022/07/07 13:18:25;;;;;;;5.10;4.60;;;;;;;;;;10344165;28;20548;-79
2022/07/07 13:23:28;;;;;;;6.70;4.82;;;;;;;;;;10358901;28;20345;-78
2022/07/07 13:28:29;;;;;;;4.18;3.75;;;;;;;;;;10353545;28;20034;-80
2022/07/07 13:33:29;;;;;;;3.30;3.00;;;;;;;;;;10344223;28;20050;-77
2022/07/07 13:38:30;;;;;;;6.33;4.93;;;;;;;;;;10333034;28;20613;-75
2022/07/07 13:43:30;;;;;;;4.50;3.00;;;;;;;;;;10339689;28;20276;-75
2022/07/07 13:48:30;;;;;;;6.97;3.25;;;;;;;;;;10338738;28;20113;-81
2022/07/07 13:53:31;;;;;;;2.97;2.30;;;;;;;;;;10327263;28;20130;-75
2022/07/07 13:58:31;;;;;;;3.37;2.30;;;;;;;;;;10332557;28;20282;-77
2022/07/07 14:03:31;;;;;;;2.80;2.50;;;;;;;;;;10353450;28;20050;-76
2022/07/07 14:08:32;;;;;;;4.13;2.63;;;;;;;;;;10354016;28;20278;-74
2022/07/07 14:13:35;;;;;;;3.15;2.85;;;;;;;;;;10360023;28;20288;-76
2022/07/07 14:18:36;;;;;;;3.45;2.80;;;;;;;;;;10336219;28;20046;-77
2022/07/07 14:23:36;;;;;;;4.13;3.73;;;;;;;;;;10356303;28;20460;-77
2022/07/07 14:28:38;;;;;;;4.47;3.65;;;;;;;;;;10346665;28;20544;-78
2022/07/07 14:33:38;;;;;;;4.35;3.33;;;;;;;;;;10338308;28;20070;-77
2022/07/07 14:38:40;;;;;;;6.50;4.20;;;;;;;;;;10345517;28;20390;-78
2022/07/07 14:43:40;;;;;;;7.18;5.13;;;;;;;;;;10324868;28;20054;-76
2022/07/07 14:48:40;;;;;;;7.93;6.00;;;;;;;;;;10323414;28;20054;-75
2022/07/07 14:53:41;;;;;;;5.40;4.40;;;;;;;;;;10351554;28;20285;-73
2022/07/07 14:58:41;;;;;;;5.17;3.97;;;;;;;;;;10348619;28;20121;-76
2022/07/07 15:03:43;;;;;;;4.87;3.13;;;;;;;;;;10362317;28;20274;-77
2022/07/07 15:08:44;;;;;;;5.93;3.30;;;;;;;;;;10355872;28;20065;-76
2022/07/07 15:13:44;;;;;;;3.60;3.30;;;;;;;;;;10390740;28;20050;-77
2022/07/07 15:18:45;;;;;;;4.20;3.10;;;;;;;;;;10372865;28;20050;-77
2022/07/07 15:23:46;;;;;;;4.20;2.33;;;;;;;;;;10366377;28;20109;-75
2022/07/07 15:28:46;;;;;;;2.95;2.65;;;;;;;;;;10373711;28;20098;-78
2022/07/07 15:33:46;;;;;;;3.00;2.57;;;;;;;;;;10377178;28;20721;-75
2022/07/07 15:38:47;;;;;;;2.57;2.30;;;;;;;;;;10363186;28;20305;-77
2022/07/07 15:43:47;;;;;;;2.30;2.10;;;;;;;;;;10333012;28;20369;-74
2022/07/07 15:48:49;;;;;;;2.67;2.47;;;;;;;;;;10357765;28;20178;-76
2022/07/07 15:53:49;;;;;;;3.10;2.80;;;;;;;;;;10350952;28;20047;-78
2022/07/07 15:58:50;;;;;;;2.70;2.45;;;;;;;;;;10350844;28;20076;-77
2022/07/07 16:09:09;;;;;;;2.95;2.75;;;;;;;;;;10325835;28;20361;-79
2022/07/07 16:14:09;;;;;;;3.10;2.80;;;;;;;;;;10351335;28;20046;-78
2022/07/07 16:19:11;;;;;;;2.63;2.43;;;;;;;;;;10338856;28;20485;-76
2022/07/07 16:24:12;;;;;;;5.23;4.60;;;;;;;;;;10353819;28;20269;-76
2022/07/07 16:29:12;;;;;;;4.25;2.75;;;;;;;;;;10373805;28;20046;-78
2022/07/07 16:34:13;;;;;;;4.43;3.25;;;;;;;;;;10363440;28;20046;-77
2022/07/07 16:39:15;;;;;;;4.10;2.80;;;;;;;;;;10355826;28;20087;-78
2022/07/07 16:44:18;;;;;;;6.05;3.30;;;;;;;;;;10372922;28;20050;-77
2022/07/07 16:49:19;;;;;;;3.60;3.25;;;;;;;;;;10345903;28;20045;-77
2022/07/07 16:54:21;;;;;;;3.77;2.97;;;;;;;;;;10351204;28;20054;-76
2022/07/07 16:59:22;;;;;;;3.75;3.00;;;;;;;;;;10378336;28;20280;-79
2022/07/07 17:04:22;;;;;;;4.00;2.97;;;;;;;;;;10373766;28;20802;-76
2022/07/07 17:09:22;;;;;;;3.57;3.00;;;;;;;;;;10342600;28;20816;-76
2022/07/07 17:14:23;;;;;;;3.20;2.90;;;;;;;;;;10361091;28;22090;-76
2022/07/07 17:19:23;;;;;;;3.67;3.38;;;;;;;;;;10357383;28;20054;-77
2022/07/07 17:24:25;;;;;;;5.15;3.25;;;;;;;;;;10369366;28;20046;-75
2022/07/07 17:29:26;;;;;;;4.47;3.00;;;;;;;;;;10334579;28;20052;-77
2022/07/07 17:34:27;;;;;;;3.30;3.00;;;;;;;;;;10347437;28;20299;-77
2022/07/07 17:39:27;;;;;;;4.38;3.40;;;;;;;;;;10324678;28;20137;-79
2022/07/07 17:44:28;;;;;;;3.50;3.20;;;;;;;;;;10337294;28;20054;-77
2022/07/07 17:49:28;;;;;;;3.83;3.40;;;;;;;;;;10319858;28;20118;-79
2022/07/07 17:54:30;;;;;;;3.23;2.90;;;;;;;;;;10312555;28;20213;-78
2022/07/07 17:59:30;;;;;;;3.42;3.13;;;;;;;;;;10332549;28;20342;-78
2022/07/07 18:04:30;;;;;;;3.83;3.40;;;;;;;;;;10311526;28;20440;-79
2022/07/07 18:09:31;;;;;;;3.77;3.20;;;;;;;;;;10345709;28;20289;-78
2022/07/07 18:14:31;;;;;;;4.00;3.58;;;;;;;;;;10344073;28;20381;-78
2022/07/07 18:19:35;;;;;;;5.65;3.42;;;;;;;;;;10339565;28;20040;-80
2022/07/07 18:24:35;;;;;;;4.45;3.13;;;;;;;;;;10316342;28;20050;-79
2022/07/07 18:29:37;;;;;;;4.17;3.40;;;;;;;;;;10341409;28;20126;-82
2022/07/07 18:34:38;;;;;;;3.92;3.42;;;;;;;;;;10343975;28;20289;-79
2022/07/07 18:39:39;;;;;;;3.42;3.13;;;;;;;;;;10355660;28;20054;-78
2022/07/07 18:44:40;;;;;;;3.72;3.08;;;;;;;;;;10325711;28;20145;-80
2022/07/07 18:49:40;;;;;;;5.55;3.40;;;;;;;;;;10339845;28;20168;-82
2022/07/07 18:54:42;;;;;;;3.47;3.17;;;;;;;;;;10350898;28;20061;-80
2022/07/07 18:59:43;;;;;;;3.15;2.85;;;;;;;;;;10351092;28;20292;-78
2022/07/07 19:04:44;;;;;;;4.53;3.30;;;;;;;;;;10315971;28;20050;-80
2022/07/07 19:09:44;;;;;;;2.77;2.50;;;;;;;;;;10363370;28;20152;-79
2022/07/07 19:14:45;;;;;;;2.83;2.63;;;;;;;;;;10354425;28;20297;-79
2022/07/07 19:19:47;;;;;;;2.90;2.70;;;;;;;;;;10367643;28;20072;-83
2022/07/07 19:24:47;;;;;;;2.67;2.37;;;;;;;;;;10346907;28;20050;-80
2022/07/07 19:29:48;;;;;;;2.97;2.10;;;;;;;;;;10351804;28;20072;-79
2022/07/07 19:34:48;;;;;;;2.30;2.10;;;;;;;;;;10329194;28;20058;-78
2022/07/07 19:39:49;;;;;;;3.30;2.35;;;;;;;;;;10334540;28;20057;-81
2022/07/07 19:44:50;;;;;;;2.00;1.80;;;;;;;;;;10314803;28;20046;-81
2022/07/07 19:49:52;;;;;;;2.92;2.30;;;;;;;;;;10348912;28;20666;-78
2022/07/07 19:54:52;;;;;;;3.55;2.10;;;;;;;;;;10342491;28;20061;-80
2022/07/07 19:59:55;;;;;;;4.13;1.92;;;;;;;;;;10346415;28;20420;-84
2022/07/07 20:04:57;;;;;;;1.10;1.00;;;;;;;;;;10328845;28;20050;-79
2022/07/07 20:09:57;;;;;;;1.65;1.42;;;;;;;;;;10366092;28;20042;-86
2022/07/07 20:14:58;;;;;;;1.20;1.10;;;;;;;;;;10348551;28;20084;-83
2022/07/07 20:20:03;;;;;;;1.48;1.10;;;;;;;;;;10330537;28;20048;-81
2022/07/07 20:25:07;;;;;;;1.52;1.30;;;;;;;;;;10339143;28;20038;-81
2022/07/07 20:30:09;;;;;;;1.40;1.30;;;;;;;;;;10327299;28;20141;-85
2022/07/07 20:35:11;;;;;;;1.52;1.35;;;;;;;;;;10328258;28;20058;-83
2022/07/07 20:40:11;;;;;;;1.58;1.40;;;;;;;;;;10374058;28;20066;-82
2022/07/07 20:45:12;;;;;;;1.40;1.23;;;;;;;;;;10362308;28;20038;-82
2022/07/07 20:50:14;;;;;;;2.38;1.67;;;;;;;;;;10385271;28;20332;-82
2022/07/07 20:55:14;;;;;;;2.53;1.70;;;;;;;;;;10368228;28;20192;-83
2022/07/07 21:00:14;;;;;;;1.70;1.38;;;;;;;;;;10350860;28;20085;-82
2022/07/07 21:05:15;;;;;;;2.42;2.03;;;;;;;;;;10351735;28;20061;-85
2022/07/07 21:10:24;;;;;;;2.17;1.88;;;;;;;;;;10343282;28;20049;-82
2022/07/07 21:15:30;;;;;;;2.90;1.98;;;;;;;;;;10351671;28;20046;-82
2022/07/07 21:20:30;;;;;;;3.13;2.53;;;;;;;;;;10366709;28;20050;-85
2022/07/07 21:25:31;;;;;;;2.60;2.23;;;;;;;;;;10345984;28;20062;-83
2022/07/07 21:30:34;;;;;;;2.38;2.00;;;;;;;;;;10338668;28;20377;-83
2022/07/07 21:35:34;;;;;;;2.05;1.85;;;;;;;;;;10362981;28;20054;-83
2022/07/07 21:40:41;;;;;;;2.13;2.00;;;;;;;;;;10368662;28;20065;-84
2022/07/07 21:45:44;;;;;;;2.95;1.90;;;;;;;;;;10376426;28;20042;-82
2022/07/07 21:50:46;;;;;;;2.38;2.17;;;;;;;;;;10377848;28;20046;-80
2022/07/07 21:55:47;;;;;;;2.53;2.15;;;;;;;;;;10357880;28;20069;-80
2022/07/07 22:00:48;;;;;;;3.80;1.85;;;;;;;;;;10372562;28;20056;-83
2022/07/07 22:11:09;;;;;;;2.22;1.80;;;;;;;;;;10378583;28;20117;-79
2022/07/07 22:16:10;;;;;;;2.50;1.75;;;;;;;;;;10356908;28;20112;-79
2022/07/07 22:21:12;;;;;;;2.40;1.88;;;;;;;;;;10342749;28;20081;-81
2022/07/07 22:26:13;;;;;;;3.85;1.75;;;;;;;;;;10346395;28;20053;-81
2022/07/07 22:31:15;;;;;;;2.40;1.77;;;;;;;;;;10351575;28;20149;-80
2022/07/07 22:36:16;;;;;;;3.97;1.85;;;;;;;;;;10307976;28;20121;-81
2022/07/07 22:41:18;;;;;;;4.63;1.80;;;;;;;;;;10342669;28;20046;-81
2022/07/07 22:46:23;;;;;;;5.10;2.00;;;;;;;;;;10345070;28;20046;-84
2022/07/07 22:51:27;;;;;;;4.70;1.90;;;;;;;;;;10347765;28;20756;-81
2022/07/07 22:56:28;;;;;;;3.63;1.98;;;;;;;;;;10350323;28;20054;-82
2022/07/07 23:01:28;;;;;;;3.35;1.70;;;;;;;;;;10348483;28;20381;-82
2022/07/07 23:06:29;;;;;;;6.45;1.85;;;;;;;;;;10380354;28;20061;-80
2022/07/07 23:11:29;;;;;;;4.40;2.05;;;;;;;;;;10370531;28;20060;-80
2022/07/07 23:16:31;;;;;;;8.38;2.20;;;;;;;;;;10383805;28;20061;-82
2022/07/07 23:21:32;;;;;;;6.22;2.17;;;;;;;;;;10356743;28;20061;-84
2022/07/07 23:26:36;;;;;;;5.20;2.25;;;;;;;;;;10898012;22;20118;-88
2022/07/07 23:31:37;;;;;;;6.68;2.35;;;;;;;;;;10401146;28;20041;-82
2022/07/07 23:36:38;;;;;;;6.07;2.10;;;;;;;;;;10416647;28;20049;-82
2022/07/07 23:41:39;;;;;;;4.05;2.03;;;;;;;;;;10411454;28;20042;-80
2022/07/07 23:46:39;;;;;;;5.63;2.13;;;;;;;;;;10380320;28;20041;-83
2022/07/07 23:51:42;;;;;;;6.17;2.20;;;;;;;;;;10397045;28;20038;-83
2022/07/07 23:56:44;;;;;;;6.57;2.33;;;;;;;;;;10389011;28;20065;-83
